createdAt,value
2023-08-20T00:01:24.487Z,23.53
2023-08-20T00:03:53.628Z,23.41
2023-08-20T00:06:22.534Z,23.39
2023-08-20T00:08:50.754Z,23.31
2023-08-20T00:11:18.738Z,23.34
2023-08-20T00:13:46.491Z,23.22
2023-08-20T00:16:16.372Z,23.12
2023-08-20T00:18:45.000Z,23.05
2023-08-20T00:21:13.390Z,23.00
2023-08-20T00:23:41.564Z,22.96
2023-08-20T00:26:10.191Z,22.94
2023-08-20T00:28:39.717Z,22.65
2023-08-20T00:31:07.703Z,22.58
2023-08-20T00:33:36.795Z,22.61
2023-08-20T00:36:04.765Z,22.59
2023-08-20T00:38:33.916Z,22.58
2023-08-20T00:41:03.373Z,22.56
2023-08-20T00:43:31.180Z,22.56
2023-08-20T00:46:01.168Z,22.55
2023-08-20T00:48:29.029Z,22.52
2023-08-20T00:50:58.063Z,22.52
2023-08-20T00:53:28.387Z,22.49
2023-08-20T00:55:56.965Z,22.48
2023-08-20T00:58:25.011Z,22.48
2023-08-20T01:00:52.695Z,22.14
2023-08-20T01:03:20.625Z,21.81
2023-08-20T01:05:55.793Z,21.80
2023-08-20T01:08:33.601Z,21.70
2023-08-20T01:11:06.014Z,21.53
2023-08-20T01:13:35.444Z,21.58
2023-08-20T01:16:03.219Z,21.60
2023-08-20T01:18:31.241Z,21.51
2023-08-20T01:21:03.499Z,21.47
2023-08-20T01:23:49.777Z,21.47
2023-08-20T01:26:50.278Z,21.47
2023-08-20T01:29:19.358Z,21.49
2023-08-20T01:31:47.559Z,21.52
2023-08-20T01:34:15.408Z,21.59
2023-08-20T01:36:43.233Z,21.62
2023-08-20T01:39:12.324Z,21.63
2023-08-20T01:41:40.104Z,21.64
2023-08-20T01:44:08.614Z,21.65
2023-08-20T01:46:37.897Z,21.66
2023-08-20T01:49:06.086Z,21.68
2023-08-20T01:51:33.917Z,21.68
2023-08-20T01:54:01.652Z,21.66
2023-08-20T01:56:29.437Z,21.66
2023-08-20T01:58:57.186Z,21.65
2023-08-20T02:01:24.976Z,21.63
2023-08-20T02:03:54.062Z,21.57
2023-08-20T02:06:21.992Z,21.54
2023-08-20T02:08:49.652Z,21.52
2023-08-20T02:11:17.688Z,21.49
2023-08-20T02:13:46.652Z,21.47
2023-08-20T02:16:14.433Z,21.44
2023-08-20T02:18:42.208Z,21.43
2023-08-20T02:21:11.229Z,21.30
2023-08-20T02:23:39.070Z,21.16
2023-08-20T02:26:08.275Z,21.16
2023-08-20T02:28:36.262Z,21.10
2023-08-20T02:31:06.761Z,21.02
2023-08-20T02:33:34.522Z,20.89
2023-08-20T02:36:03.818Z,20.74
2023-08-20T02:38:33.046Z,20.73
2023-08-20T02:41:00.997Z,20.69
2023-08-20T02:43:28.645Z,20.71
2023-08-20T02:45:56.685Z,20.68
2023-08-20T02:48:27.902Z,20.69
2023-08-20T02:50:55.965Z,20.69
2023-08-20T02:53:24.376Z,20.70
2023-08-20T02:55:53.484Z,20.71
2023-08-20T02:58:21.197Z,20.70
2023-08-20T03:00:48.880Z,20.70
2023-08-20T03:03:16.773Z,20.73
2023-08-20T03:05:45.399Z,20.72
2023-08-20T03:08:13.238Z,20.71
2023-08-20T03:10:40.893Z,20.69
2023-08-20T03:13:10.504Z,20.71
2023-08-20T03:15:38.356Z,20.67
2023-08-20T03:18:07.455Z,20.66
2023-08-20T03:20:35.742Z,20.65
2023-08-20T03:23:03.753Z,20.65
2023-08-20T03:25:31.467Z,20.59
2023-08-20T03:27:59.447Z,20.53
2023-08-20T03:30:28.815Z,20.48
2023-08-20T03:32:57.083Z,20.44
2023-08-20T03:35:25.584Z,20.40
2023-08-20T03:37:53.425Z,20.34
2023-08-20T03:40:21.082Z,20.32
2023-08-20T03:42:48.997Z,20.23
2023-08-20T03:45:18.827Z,20.20
2023-08-20T03:47:48.518Z,20.20
2023-08-20T03:50:18.423Z,20.23
2023-08-20T03:52:46.825Z,20.22
2023-08-20T03:55:14.691Z,20.22
2023-08-20T03:57:42.368Z,20.21
2023-08-20T04:00:11.088Z,20.20
2023-08-20T04:02:45.761Z,20.19
2023-08-20T04:05:15.045Z,20.14
2023-08-20T04:07:42.724Z,20.10
2023-08-20T04:10:11.148Z,20.02
2023-08-20T04:12:38.811Z,19.95
2023-08-20T04:15:07.232Z,19.84
2023-08-20T04:17:35.310Z,19.80
2023-08-20T04:20:08.814Z,19.73
2023-08-20T04:22:38.309Z,19.65
2023-08-20T04:25:07.141Z,19.54
2023-08-20T04:27:35.468Z,19.13
2023-08-20T04:30:03.950Z,19.14
2023-08-20T04:32:31.794Z,18.92
2023-08-20T04:35:00.581Z,18.95
2023-08-20T04:37:28.760Z,19.00
2023-08-20T04:40:00.012Z,19.10
2023-08-20T04:42:30.304Z,19.12
2023-08-20T04:44:58.764Z,19.12
2023-08-20T04:47:28.023Z,19.09
2023-08-20T04:49:56.026Z,18.91
2023-08-20T04:52:24.059Z,18.87
2023-08-20T04:54:51.826Z,18.92
2023-08-20T04:57:24.604Z,18.87
2023-08-20T04:59:52.565Z,18.79
2023-08-20T05:02:28.408Z,18.93
2023-08-20T05:05:00.910Z,19.07
2023-08-20T05:07:29.410Z,19.20
2023-08-20T05:09:57.390Z,19.28
2023-08-20T05:12:26.997Z,19.36
2023-08-20T05:14:54.778Z,19.46
2023-08-20T05:17:23.192Z,19.47
2023-08-20T05:19:50.982Z,19.35
2023-08-20T05:22:18.807Z,19.37
2023-08-20T05:24:46.723Z,19.49
2023-08-20T05:27:18.661Z,19.70
2023-08-20T05:29:50.465Z,19.88
2023-08-20T05:32:19.678Z,20.05
2023-08-20T05:34:48.423Z,20.17
2023-08-20T05:37:16.300Z,20.35
2023-08-20T05:39:46.248Z,20.53
2023-08-20T05:42:14.841Z,20.73
2023-08-20T05:44:48.229Z,20.98
2023-08-20T05:47:22.403Z,21.19
2023-08-20T05:49:50.549Z,21.42
2023-08-20T05:52:18.843Z,21.58
2023-08-20T05:54:46.565Z,21.51
2023-08-20T05:57:14.493Z,21.63
2023-08-20T05:59:43.415Z,21.79
2023-08-20T06:02:11.415Z,21.89
2023-08-20T06:04:40.459Z,22.07
2023-08-20T06:07:08.270Z,22.05
2023-08-20T06:09:36.144Z,22.11
2023-08-20T06:12:03.924Z,22.04
2023-08-20T06:14:31.573Z,22.11
2023-08-20T06:16:59.451Z,22.10
2023-08-20T06:19:28.011Z,22.26
2023-08-20T06:21:57.247Z,22.32
2023-08-20T06:24:24.925Z,22.50
2023-08-20T06:26:53.356Z,22.64
2023-08-20T06:29:22.769Z,22.76
2023-08-20T06:31:51.516Z,22.97
2023-08-20T06:34:19.381Z,23.11
2023-08-20T06:36:47.207Z,23.21
2023-08-20T06:39:16.352Z,23.18
2023-08-20T06:41:44.145Z,23.32
2023-08-20T06:44:21.367Z,23.49
2023-08-20T06:46:49.061Z,23.70
2023-08-20T06:49:16.854Z,23.90
2023-08-20T06:51:44.545Z,23.91
2023-08-20T06:54:12.390Z,24.01
2023-08-20T06:56:41.405Z,24.26
2023-08-20T06:59:09.153Z,24.44
2023-08-20T07:01:36.860Z,24.52
2023-08-20T07:04:04.921Z,24.67
2023-08-20T07:06:32.806Z,24.86
2023-08-20T07:09:00.697Z,25.04
2023-08-20T07:11:28.573Z,25.15
2023-08-20T07:13:57.858Z,25.31
2023-08-20T07:16:25.682Z,25.28
2023-08-20T07:18:54.280Z,25.49
2023-08-20T07:21:22.028Z,25.57
2023-08-20T07:23:49.851Z,25.78
2023-08-20T07:26:17.542Z,26.00
2023-08-20T07:29:01.043Z,26.22
2023-08-20T07:31:32.012Z,26.37
2023-08-20T07:36:32.634Z,26.63
2023-08-20T07:39:02.678Z,26.79
2023-08-20T07:41:31.456Z,27.01
2023-08-20T07:43:59.136Z,27.23
2023-08-20T07:46:27.100Z,27.39
2023-08-20T07:48:56.133Z,27.59
2023-08-20T07:51:23.861Z,27.75
2023-08-20T07:53:51.536Z,27.90
2023-08-20T07:56:19.531Z,27.89
2023-08-20T07:58:47.229Z,28.04
2023-08-20T08:01:15.355Z,28.18
2023-08-20T08:03:43.214Z,28.39
2023-08-20T08:06:12.476Z,28.44
2023-08-20T08:08:44.403Z,28.70
2023-08-20T08:11:12.170Z,28.89
2023-08-20T08:13:39.975Z,29.14
2023-08-20T08:16:07.781Z,29.22
2023-08-20T08:18:35.469Z,29.37
2023-08-20T08:21:03.252Z,29.03
2023-08-20T08:23:32.298Z,29.36
2023-08-20T08:25:59.980Z,29.66
2023-08-20T08:28:27.762Z,29.72
2023-08-20T08:30:55.515Z,30.10
2023-08-20T08:33:24.792Z,30.40
2023-08-20T08:35:52.721Z,30.46
2023-08-20T08:38:20.396Z,30.47
2023-08-20T08:40:50.513Z,31.00
2023-08-20T08:43:18.884Z,31.20
2023-08-20T08:45:49.298Z,31.61
2023-08-20T08:48:18.095Z,31.97
2023-08-20T08:50:45.840Z,32.30
2023-08-20T08:53:15.413Z,32.41
2023-08-20T08:55:43.891Z,32.60
2023-08-20T08:58:14.302Z,32.93
2023-08-20T09:00:42.376Z,33.08
2023-08-20T09:03:10.250Z,33.34
2023-08-20T09:05:49.554Z,33.41
2023-08-20T09:08:23.683Z,33.47
2023-08-20T09:10:53.796Z,33.69
2023-08-20T09:13:26.406Z,33.91
2023-08-20T09:15:54.545Z,33.91
2023-08-20T09:18:22.653Z,34.02
2023-08-20T09:20:51.711Z,34.21
2023-08-20T09:23:19.381Z,34.45
2023-08-20T09:25:47.446Z,34.61
2023-08-20T09:28:15.936Z,34.76
2023-08-20T09:30:57.121Z,35.03
2023-08-20T09:33:24.881Z,35.00
2023-08-20T09:35:53.180Z,34.93
2023-08-20T09:38:22.142Z,35.01
2023-08-20T09:40:52.200Z,35.08
2023-08-20T09:43:20.621Z,35.24
2023-08-20T09:45:50.544Z,35.46
2023-08-20T09:48:22.297Z,35.61
2023-08-20T09:50:53.768Z,35.82
2023-08-20T09:53:28.228Z,35.97
2023-08-20T09:56:01.194Z,36.13
2023-08-20T09:58:29.733Z,36.21
2023-08-20T10:00:59.248Z,36.36
2023-08-20T10:03:27.152Z,36.56
2023-08-20T10:05:56.031Z,36.66
2023-08-20T10:08:23.896Z,36.72
2023-08-20T10:10:51.609Z,36.83
2023-08-20T10:13:19.844Z,36.90
2023-08-20T10:15:48.027Z,36.99
2023-08-20T10:18:17.283Z,37.00
2023-08-20T10:20:45.015Z,37.12
2023-08-20T10:23:14.363Z,37.16
2023-08-20T10:25:45.168Z,37.29
2023-08-20T10:28:15.760Z,37.39
2023-08-20T10:31:11.083Z,37.64
2023-08-20T10:33:41.473Z,37.60
2023-08-20T10:36:11.655Z,37.50
2023-08-20T10:38:40.283Z,37.74
2023-08-20T10:41:09.235Z,37.82
2023-08-20T10:43:38.914Z,37.91
2023-08-20T10:46:15.374Z,38.01
2023-08-20T10:48:45.754Z,38.20
2023-08-20T10:51:15.346Z,38.41
2023-08-20T10:53:44.608Z,38.35
2023-08-20T10:56:14.590Z,38.34
2023-08-20T10:58:47.911Z,38.34
2023-08-20T11:01:22.016Z,38.53
2023-08-20T11:03:52.268Z,38.61
2023-08-20T11:06:20.875Z,38.55
2023-08-20T11:08:48.754Z,38.60
2023-08-20T11:11:17.389Z,38.49
2023-08-20T11:13:45.425Z,38.38
2023-08-20T11:16:13.545Z,38.16
2023-08-20T11:18:41.409Z,38.05
2023-08-20T11:21:10.615Z,37.89
2023-08-20T11:23:40.888Z,37.86
2023-08-20T11:26:09.933Z,37.62
2023-08-20T11:28:37.795Z,37.40
2023-08-20T11:31:05.712Z,37.24
2023-08-20T11:33:33.579Z,37.11
2023-08-20T11:36:01.388Z,36.95
2023-08-20T11:38:31.452Z,36.83
2023-08-20T11:41:00.654Z,36.74
2023-08-20T11:43:29.416Z,36.66
2023-08-20T11:45:57.823Z,36.64
2023-08-20T11:48:25.731Z,36.52
2023-08-20T11:50:53.501Z,36.44
2023-08-20T11:53:24.286Z,36.36
2023-08-20T11:55:53.349Z,36.14
2023-08-20T11:58:22.565Z,36.05
2023-08-20T12:00:51.858Z,36.00
2023-08-20T12:03:21.748Z,35.87
2023-08-20T12:05:49.493Z,35.78
2023-08-20T12:08:18.977Z,35.61
2023-08-20T12:10:46.726Z,35.59
2023-08-20T12:13:15.917Z,35.50
2023-08-20T12:15:43.600Z,35.48
2023-08-20T12:18:11.670Z,35.35
2023-08-20T12:20:39.554Z,35.20
2023-08-20T12:23:08.840Z,35.08
2023-08-20T12:25:37.836Z,35.06
2023-08-20T12:28:06.816Z,35.03
2023-08-20T12:30:38.453Z,34.98
2023-08-20T12:33:07.870Z,35.02
2023-08-20T12:35:36.124Z,34.98
2023-08-20T12:38:03.832Z,34.95
2023-08-20T12:40:33.581Z,34.96
2023-08-20T12:43:01.301Z,34.92
2023-08-20T12:45:29.005Z,34.91
2023-08-20T12:48:00.730Z,35.01
2023-08-20T12:50:30.400Z,35.02
2023-08-20T12:52:58.183Z,34.98
2023-08-20T12:55:26.235Z,34.92
2023-08-20T12:57:55.991Z,34.89
2023-08-20T13:00:26.111Z,34.91
2023-08-20T13:02:54.552Z,34.98
2023-08-20T13:05:24.851Z,35.03
2023-08-20T13:07:53.078Z,35.03
2023-08-20T13:10:22.467Z,35.03
2023-08-20T13:12:52.304Z,35.05
2023-08-20T13:15:21.467Z,35.05
2023-08-20T13:17:51.504Z,35.06
2023-08-20T13:20:22.208Z,35.07
2023-08-20T13:22:51.585Z,35.13
2023-08-20T13:25:19.512Z,35.16
2023-08-20T13:27:47.425Z,35.08
2023-08-20T13:30:15.474Z,35.09
2023-08-20T13:32:43.630Z,35.12
2023-08-20T13:35:11.364Z,35.11
2023-08-20T13:37:39.300Z,35.10
2023-08-20T13:40:10.848Z,35.10
2023-08-20T13:42:39.041Z,35.13
2023-08-20T13:45:08.386Z,35.13
2023-08-20T13:47:36.223Z,35.15
2023-08-20T13:50:05.635Z,35.15
2023-08-20T13:52:33.857Z,35.14
2023-08-20T13:55:02.010Z,35.12
2023-08-20T13:57:31.165Z,35.13
2023-08-20T14:00:00.203Z,35.14
2023-08-20T14:02:27.994Z,35.20
2023-08-20T14:04:55.827Z,35.17
2023-08-20T14:07:24.476Z,35.17
2023-08-20T14:09:52.322Z,35.32
2023-08-20T14:12:21.001Z,35.50
2023-08-20T14:14:50.165Z,35.67
2023-08-20T14:17:18.215Z,35.71
2023-08-20T14:19:46.030Z,35.67
2023-08-20T14:22:13.682Z,35.58
2023-08-20T14:24:41.651Z,35.58
2023-08-20T14:27:09.414Z,35.52
2023-08-20T14:29:37.223Z,35.45
2023-08-20T14:32:06.634Z,35.32
2023-08-20T14:34:34.932Z,35.21
2023-08-20T14:37:02.640Z,35.26
2023-08-20T14:39:32.558Z,35.34
2023-08-20T14:42:01.129Z,35.47
2023-08-20T14:44:29.510Z,35.70
2023-08-20T14:46:57.248Z,36.02
2023-08-20T14:49:27.146Z,36.14
2023-08-20T14:52:02.999Z,36.11
2023-08-20T14:54:37.722Z,36.04
2023-08-20T14:57:05.637Z,35.50
2023-08-20T14:59:33.290Z,35.69
2023-08-20T15:02:01.021Z,35.67
2023-08-20T15:04:30.044Z,35.83
2023-08-20T15:06:57.954Z,35.97
2023-08-20T15:09:25.676Z,36.08
2023-08-20T15:11:53.457Z,36.18
2023-08-20T15:14:21.123Z,36.28
2023-08-20T15:16:49.385Z,36.53
2023-08-20T15:19:17.137Z,36.84
2023-08-20T15:21:46.374Z,37.16
2023-08-20T15:24:14.050Z,37.37
2023-08-20T15:26:42.460Z,37.87
2023-08-20T15:29:10.120Z,38.48
2023-08-20T15:31:37.930Z,39.03
2023-08-20T15:34:06.318Z,39.53
2023-08-20T15:36:34.281Z,39.88
2023-08-20T15:39:03.787Z,40.27
2023-08-20T15:41:31.585Z,40.60
2023-08-20T15:43:59.253Z,40.91
2023-08-20T15:46:27.078Z,41.15
2023-08-20T15:48:55.130Z,41.27
2023-08-20T15:51:22.844Z,41.21
2023-08-20T15:53:50.793Z,41.07
2023-08-20T15:56:19.764Z,40.94
2023-08-20T15:58:47.429Z,40.92
2023-08-20T16:01:15.202Z,40.92
2023-08-20T16:03:43.590Z,40.84
2023-08-20T16:06:11.609Z,40.87
2023-08-20T16:08:39.439Z,40.97
2023-08-20T16:11:07.177Z,41.12
2023-08-20T16:13:36.201Z,41.40
2023-08-20T16:16:03.953Z,41.64
2023-08-20T16:18:31.699Z,41.60
2023-08-20T16:20:59.335Z,41.67
2023-08-20T16:23:27.147Z,41.74
2023-08-20T16:25:54.816Z,41.87
2023-08-20T16:28:22.593Z,41.90
2023-08-20T16:30:53.217Z,41.94
2023-08-20T16:33:23.896Z,41.99
2023-08-20T16:35:52.043Z,42.02
2023-08-20T16:38:19.742Z,41.89
2023-08-20T16:40:47.970Z,41.75
2023-08-20T16:43:15.805Z,41.71
2023-08-20T16:45:43.495Z,41.64
2023-08-20T16:48:12.563Z,41.56
2023-08-20T16:50:40.390Z,41.30
2023-08-20T16:53:08.263Z,41.03
2023-08-20T16:55:36.048Z,40.84
2023-08-20T16:58:04.025Z,40.58
2023-08-20T17:00:31.700Z,40.23
2023-08-20T17:02:59.527Z,39.95
2023-08-20T17:05:28.590Z,39.48
2023-08-20T17:07:56.299Z,38.89
2023-08-20T17:10:24.847Z,38.26
2023-08-20T17:12:53.165Z,37.75
2023-08-20T17:15:21.698Z,37.40
2023-08-20T17:17:50.049Z,37.08
2023-08-20T17:20:17.902Z,36.72
2023-08-20T17:22:46.963Z,36.29
2023-08-20T17:25:14.753Z,35.92
2023-08-20T17:27:42.449Z,35.64
2023-08-20T17:30:13.083Z,35.32
2023-08-20T17:32:41.274Z,35.01
2023-08-20T17:35:10.095Z,34.65
2023-08-20T17:37:38.183Z,34.39
2023-08-20T17:40:11.345Z,34.06
2023-08-20T17:42:39.979Z,33.75
2023-08-20T17:45:09.584Z,33.46
2023-08-20T17:47:38.201Z,33.20
2023-08-20T17:50:06.439Z,32.95
2023-08-20T17:52:34.449Z,32.74
2023-08-20T17:55:04.049Z,32.50
2023-08-20T17:57:33.041Z,32.29
2023-08-20T18:00:00.966Z,32.09
2023-08-20T18:02:28.610Z,31.93
2023-08-20T18:04:56.395Z,31.82
2023-08-20T18:07:24.112Z,31.62
2023-08-20T18:09:51.908Z,31.45
2023-08-20T18:12:19.603Z,31.31
2023-08-20T18:14:48.830Z,31.17
2023-08-20T18:17:16.526Z,30.93
2023-08-20T18:19:44.327Z,30.73
2023-08-20T18:22:12.265Z,30.60
2023-08-20T18:24:39.937Z,30.42
2023-08-20T18:27:07.901Z,30.19
2023-08-20T18:29:35.598Z,30.01
2023-08-20T18:32:05.533Z,29.85
2023-08-20T18:34:33.192Z,29.70
2023-08-20T18:37:01.130Z,29.58
2023-08-20T18:39:28.924Z,29.44
2023-08-20T18:41:57.000Z,29.34
2023-08-20T18:44:24.748Z,29.25
2023-08-20T18:46:52.559Z,29.15
2023-08-20T18:49:21.637Z,28.99
2023-08-20T18:51:49.619Z,28.82
2023-08-20T18:54:17.298Z,28.70
2023-08-20T18:56:45.118Z,28.43
2023-08-20T18:59:12.990Z,28.36
2023-08-20T19:01:40.856Z,28.22
2023-08-20T19:04:08.593Z,28.09
2023-08-20T19:06:37.798Z,27.84
2023-08-20T19:09:07.213Z,27.74
2023-08-20T19:11:35.448Z,27.67
2023-08-20T19:14:03.251Z,27.56
2023-08-20T19:16:31.016Z,27.42
2023-08-20T19:18:58.747Z,27.20
2023-08-20T19:21:26.896Z,27.02
2023-08-20T19:23:56.765Z,26.74
2023-08-20T19:26:24.594Z,26.50
2023-08-20T19:28:52.245Z,26.23
2023-08-20T19:31:22.691Z,26.25
2023-08-20T19:33:50.772Z,26.26
2023-08-20T19:36:18.493Z,26.27
2023-08-20T19:38:46.204Z,26.28
2023-08-20T19:41:15.229Z,26.30
2023-08-20T19:43:42.927Z,26.24
2023-08-20T19:46:10.667Z,26.20
2023-08-20T19:48:38.455Z,26.04
2023-08-20T19:51:06.425Z,25.95
2023-08-20T19:53:34.101Z,25.90
2023-08-20T19:56:01.772Z,25.88
2023-08-20T19:58:30.877Z,25.77
2023-08-20T20:00:58.648Z,25.71
2023-08-20T20:03:26.968Z,25.70
2023-08-20T20:05:54.692Z,25.72
2023-08-20T20:08:24.375Z,25.78
2023-08-20T20:10:54.020Z,25.76
2023-08-20T20:13:22.303Z,25.68
2023-08-20T20:15:51.394Z,25.35
2023-08-20T20:18:19.070Z,25.29
2023-08-20T20:20:57.238Z,25.07
2023-08-20T20:23:25.210Z,24.93
2023-08-20T20:25:53.014Z,24.96
2023-08-20T20:28:20.815Z,24.86
2023-08-20T20:30:48.944Z,24.74
2023-08-20T20:33:18.066Z,24.73
2023-08-20T20:35:45.893Z,24.70
2023-08-20T20:38:13.538Z,24.71
2023-08-20T20:40:43.937Z,24.61
2023-08-20T20:43:11.682Z,24.54
2023-08-20T20:45:43.345Z,24.51
2023-08-20T20:48:11.041Z,24.49
2023-08-20T20:50:40.270Z,24.48
2023-08-20T20:53:08.532Z,24.48
2023-08-20T20:55:36.320Z,24.48
2023-08-20T20:58:05.105Z,24.39
2023-08-20T21:00:33.007Z,24.33
2023-08-20T21:03:00.844Z,24.28
2023-08-20T21:05:28.619Z,24.28
2023-08-20T21:07:57.627Z,24.24
2023-08-20T21:10:25.430Z,24.21
2023-08-20T21:12:53.108Z,24.24
2023-08-20T21:15:20.767Z,24.24
2023-08-20T21:17:48.457Z,24.25
2023-08-20T21:20:16.130Z,24.27
2023-08-20T21:22:43.912Z,24.26
2023-08-20T21:25:12.910Z,24.25
2023-08-20T21:27:40.610Z,24.21
2023-08-20T21:30:09.721Z,24.20
2023-08-20T21:32:37.654Z,24.17
2023-08-20T21:35:06.091Z,24.20
2023-08-20T21:37:33.803Z,24.16
2023-08-20T21:40:01.515Z,23.99
2023-08-20T21:42:30.678Z,23.79
2023-08-20T21:44:58.324Z,23.83
2023-08-20T21:47:27.632Z,23.89
2023-08-20T21:49:55.438Z,23.89
2023-08-20T21:52:24.410Z,23.93
2023-08-20T21:54:52.324Z,23.92
2023-08-20T21:57:21.035Z,23.96
2023-08-20T21:59:51.059Z,23.98
2023-08-20T22:02:19.753Z,23.95
2023-08-20T22:04:47.508Z,23.95
2023-08-20T22:07:15.184Z,23.93
2023-08-20T22:09:42.841Z,23.92
2023-08-20T22:12:12.037Z,23.91
2023-08-20T22:14:39.770Z,23.91
2023-08-20T22:17:09.560Z,23.89
2023-08-20T22:19:37.656Z,23.77
2023-08-20T22:22:05.373Z,23.69
2023-08-20T22:24:33.160Z,23.73
2023-08-20T22:27:00.820Z,23.74
2023-08-20T22:29:28.509Z,23.72
2023-08-20T22:31:56.185Z,23.69
2023-08-20T22:34:25.355Z,23.70
2023-08-20T22:36:53.013Z,23.72
2023-08-20T22:39:21.121Z,23.74
2023-08-20T22:41:48.791Z,23.78
2023-08-20T22:44:16.796Z,23.80
2023-08-20T22:46:44.443Z,23.70
2023-08-20T22:49:12.102Z,23.74
2023-08-20T22:51:41.089Z,23.68
2023-08-20T22:54:08.927Z,23.56
2023-08-20T22:56:36.589Z,23.49
2023-08-20T22:59:04.453Z,23.48
2023-08-20T23:01:32.792Z,23.38
2023-08-20T23:04:00.563Z,23.35
2023-08-20T23:06:28.592Z,23.23
2023-08-20T23:08:57.871Z,23.25
2023-08-20T23:11:25.540Z,23.25
2023-08-20T23:13:53.272Z,23.26
2023-08-20T23:16:21.071Z,23.23
2023-08-20T23:18:48.880Z,23.21
2023-08-20T23:21:16.576Z,23.17
2023-08-20T23:23:44.324Z,23.09
2023-08-20T23:26:13.366Z,23.08
2023-08-20T23:28:41.067Z,23.09
2023-08-20T23:31:09.488Z,23.05
2023-08-20T23:33:37.209Z,22.95
2023-08-20T23:36:05.267Z,22.97
2023-08-20T23:38:38.979Z,23.01
2023-08-20T23:41:06.787Z,23.01
2023-08-20T23:43:35.842Z,23.02
2023-08-20T23:46:03.586Z,22.97
2023-08-20T23:48:31.281Z,23.00
2023-08-20T23:50:59.071Z,22.98
2023-08-20T23:53:29.169Z,22.96
2023-08-20T23:55:56.957Z,22.93
2023-08-20T23:58:24.603Z,22.94
